sensor_id;sensor_type;location;lat;lon;timestamp;P1;durP1;ratioP1;P2;durP2;ratioP2
18576;SDS011;9418;52.694;13.294;2023-02-23T00:01:55;21.63;;;11.57;;
18576;SDS011;9418;52.694;13.294;2023-02-23T00:04:27;25.93;;;12.50;;
18576;SDS011;9418;52.694;13.294;2023-02-23T00:06:53;29.57;;;14.10;;
18576;SDS011;9418;52.694;13.294;2023-02-23T00:09:20;22.70;;;11.00;;
18576;SDS011;9418;52.694;13.294;2023-02-23T00:11:50;36.90;;;12.70;;
18576;SDS011;9418;52.694;13.294;2023-02-23T00:14:17;24.77;;;11.50;;
18576;SDS011;9418;52.694;13.294;2023-02-23T00:16:44;23.43;;;12.80;;
18576;SDS011;9418;52.694;13.294;2023-02-23T00:19:11;33.20;;;12.50;;
18576;SDS011;9418;52.694;13.294;2023-02-23T00:21:40;28.47;;;13.50;;
18576;SDS011;9418;52.694;13.294;2023-02-23T00:24:08;22.50;;;11.90;;
18576;SDS011;9418;52.694;13.294;2023-02-23T00:26:37;30.80;;;12.77;;
18576;SDS011;9418;52.694;13.294;2023-02-23T00:29:06;32.43;;;13.10;;
18576;SDS011;9418;52.694;13.294;2023-02-23T00:31:34;27.93;;;12.87;;
18576;SDS011;9418;52.694;13.294;2023-02-23T00:34:02;30.30;;;12.67;;
18576;SDS011;9418;52.694;13.294;2023-02-23T00:36:30;25.90;;;12.30;;
18576;SDS011;9418;52.694;13.294;2023-02-23T00:39:00;26.90;;;12.17;;
18576;SDS011;9418;52.694;13.294;2023-02-23T00:41:36;26.00;;;13.83;;
18576;SDS011;9418;52.694;13.294;2023-02-23T00:44:02;26.90;;;12.83;;
18576;SDS011;9418;52.694;13.294;2023-02-23T00:46:29;32.20;;;14.00;;
18576;SDS011;9418;52.694;13.294;2023-02-23T00:48:56;30.90;;;13.07;;
18576;SDS011;9418;52.694;13.294;2023-02-23T00:51:24;28.23;;;11.80;;
18576;SDS011;9418;52.694;13.294;2023-02-23T00:53:55;27.53;;;12.83;;
18576;SDS011;9418;52.694;13.294;2023-02-23T00:56:23;21.30;;;11.80;;
18576;SDS011;9418;52.694;13.294;2023-02-23T00:58:49;24.57;;;11.77;;
18576;SDS011;9418;52.694;13.294;2023-02-23T01:01:16;31.57;;;14.37;;
18576;SDS011;9418;52.694;13.294;2023-02-23T01:03:43;31.10;;;12.10;;
18576;SDS011;9418;52.694;13.294;2023-02-23T01:06:11;23.23;;;12.67;;
18576;SDS011;9418;52.694;13.294;2023-02-23T01:08:39;22.40;;;10.70;;
18576;SDS011;9418;52.694;13.294;2023-02-23T01:11:07;26.43;;;12.00;;
18576;SDS011;9418;52.694;13.294;2023-02-23T01:13:37;28.50;;;12.00;;
18576;SDS011;9418;52.694;13.294;2023-02-23T01:16:04;28.03;;;13.40;;
18576;SDS011;9418;52.694;13.294;2023-02-23T01:18:32;25.50;;;12.23;;
18576;SDS011;9418;52.694;13.294;2023-02-23T01:20:59;24.03;;;13.07;;
18576;SDS011;9418;52.694;13.294;2023-02-23T01:23:26;23.20;;;12.23;;
18576;SDS011;9418;52.694;13.294;2023-02-23T01:25:53;29.43;;;12.97;;
18576;SDS011;9418;52.694;13.294;2023-02-23T01:28:19;26.07;;;13.47;;
18576;SDS011;9418;52.694;13.294;2023-02-23T01:30:47;29.30;;;14.13;;
18576;SDS011;9418;52.694;13.294;2023-02-23T01:33:14;34.27;;;13.40;;
18576;SDS011;9418;52.694;13.294;2023-02-23T01:35:41;25.83;;;12.20;;
18576;SDS011;9418;52.694;13.294;2023-02-23T01:38:08;31.83;;;13.53;;
18576;SDS011;9418;52.694;13.294;2023-02-23T01:40:35;26.50;;;13.57;;
18576;SDS011;9418;52.694;13.294;2023-02-23T01:43:09;25.93;;;12.83;;
18576;SDS011;9418;52.694;13.294;2023-02-23T01:45:39;25.80;;;12.33;;
18576;SDS011;9418;52.694;13.294;2023-02-23T01:48:08;28.20;;;13.47;;
18576;SDS011;9418;52.694;13.294;2023-02-23T01:50:41;23.57;;;13.50;;
18576;SDS011;9418;52.694;13.294;2023-02-23T01:53:09;26.10;;;13.30;;
18576;SDS011;9418;52.694;13.294;2023-02-23T01:55:36;31.50;;;12.47;;
18576;SDS011;9418;52.694;13.294;2023-02-23T01:58:06;31.07;;;14.10;;
18576;SDS011;9418;52.694;13.294;2023-02-23T02:00:39;26.20;;;14.03;;
18576;SDS011;9418;52.694;13.294;2023-02-23T02:03:09;29.90;;;12.73;;
18576;SDS011;9418;52.694;13.294;2023-02-23T02:05:40;31.27;;;13.57;;
18576;SDS011;9418;52.694;13.294;2023-02-23T02:08:07;30.17;;;13.80;;
18576;SDS011;9418;52.694;13.294;2023-02-23T02:10:35;23.27;;;13.03;;
18576;SDS011;9418;52.694;13.294;2023-02-23T02:13:11;29.27;;;13.57;;
18576;SDS011;9418;52.694;13.294;2023-02-23T02:15:47;31.57;;;13.40;;
18576;SDS011;9418;52.694;13.294;2023-02-23T02:18:38;21.73;;;12.47;;
18576;SDS011;9418;52.694;13.294;2023-02-23T02:21:23;31.83;;;14.37;;
18576;SDS011;9418;52.694;13.294;2023-02-23T02:27:33;21.17;;;12.33;;
18576;SDS011;9418;52.694;13.294;2023-02-23T02:30:21;24.80;;;13.60;;
18576;SDS011;9418;52.694;13.294;2023-02-23T02:33:17;28.67;;;12.97;;
18576;SDS011;9418;52.694;13.294;2023-02-23T02:36:08;37.50;;;13.33;;
18576;SDS011;9418;52.694;13.294;2023-02-23T02:38:50;31.07;;;14.30;;
18576;SDS011;9418;52.694;13.294;2023-02-23T02:41:24;23.63;;;13.20;;
18576;SDS011;9418;52.694;13.294;2023-02-23T02:44:01;31.70;;;14.43;;
18576;SDS011;9418;52.694;13.294;2023-02-23T02:46:35;27.33;;;14.33;;
18576;SDS011;9418;52.694;13.294;2023-02-23T02:49:05;35.43;;;14.77;;
18576;SDS011;9418;52.694;13.294;2023-02-23T02:51:39;27.23;;;12.63;;
18576;SDS011;9418;52.694;13.294;2023-02-23T02:54:12;24.97;;;12.77;;
18576;SDS011;9418;52.694;13.294;2023-02-23T02:56:43;24.43;;;13.53;;
18576;SDS011;9418;52.694;13.294;2023-02-23T02:59:12;29.60;;;13.30;;
18576;SDS011;9418;52.694;13.294;2023-02-23T03:01:57;27.80;;;14.13;;
18576;SDS011;9418;52.694;13.294;2023-02-23T03:04:42;31.73;;;13.90;;
18576;SDS011;9418;52.694;13.294;2023-02-23T03:07:29;25.13;;;12.80;;
18576;SDS011;9418;52.694;13.294;2023-02-23T03:10:22;27.03;;;13.80;;
18576;SDS011;9418;52.694;13.294;2023-02-23T03:13:17;28.53;;;13.47;;
18576;SDS011;9418;52.694;13.294;2023-02-23T03:16:12;29.10;;;12.80;;
18576;SDS011;9418;52.694;13.294;2023-02-23T03:19:08;29.40;;;13.90;;
18576;SDS011;9418;52.694;13.294;2023-02-23T03:21:59;26.27;;;13.80;;
18576;SDS011;9418;52.694;13.294;2023-02-23T03:24:51;25.43;;;13.03;;
18576;SDS011;9418;52.694;13.294;2023-02-23T03:27:47;27.57;;;14.90;;
18576;SDS011;9418;52.694;13.294;2023-02-23T03:30:37;26.50;;;14.27;;
18576;SDS011;9418;52.694;13.294;2023-02-23T03:33:28;30.50;;;14.17;;
18576;SDS011;9418;52.694;13.294;2023-02-23T03:36:20;28.50;;;13.00;;
18576;SDS011;9418;52.694;13.294;2023-02-23T03:39:10;33.10;;;14.53;;
18576;SDS011;9418;52.694;13.294;2023-02-23T03:42:00;31.63;;;14.13;;
18576;SDS011;9418;52.694;13.294;2023-02-23T03:44:48;26.13;;;13.67;;
18576;SDS011;9418;52.694;13.294;2023-02-23T03:47:34;29.70;;;13.87;;
18576;SDS011;9418;52.694;13.294;2023-02-23T03:50:24;25.07;;;13.00;;
18576;SDS011;9418;52.694;13.294;2023-02-23T03:53:11;31.80;;;14.90;;
18576;SDS011;9418;52.694;13.294;2023-02-23T03:56:00;30.20;;;14.30;;
18576;SDS011;9418;52.694;13.294;2023-02-23T03:58:45;27.40;;;15.13;;
18576;SDS011;9418;52.694;13.294;2023-02-23T04:01:35;24.97;;;14.00;;
18576;SDS011;9418;52.694;13.294;2023-02-23T04:04:21;26.50;;;13.17;;
18576;SDS011;9418;52.694;13.294;2023-02-23T04:07:08;25.20;;;13.93;;
18576;SDS011;9418;52.694;13.294;2023-02-23T04:09:53;24.13;;;15.20;;
18576;SDS011;9418;52.694;13.294;2023-02-23T04:12:39;28.93;;;13.43;;
18576;SDS011;9418;52.694;13.294;2023-02-23T04:15:30;27.60;;;14.10;;
18576;SDS011;9418;52.694;13.294;2023-02-23T04:18:01;23.13;;;13.03;;
18576;SDS011;9418;52.694;13.294;2023-02-23T04:20:29;30.57;;;14.40;;
18576;SDS011;9418;52.694;13.294;2023-02-23T04:22:55;30.20;;;14.30;;
18576;SDS011;9418;52.694;13.294;2023-02-23T04:25:22;26.50;;;14.40;;
18576;SDS011;9418;52.694;13.294;2023-02-23T04:27:48;26.53;;;13.70;;
18576;SDS011;9418;52.694;13.294;2023-02-23T04:30:15;28.80;;;14.20;;
18576;SDS011;9418;52.694;13.294;2023-02-23T04:32:44;26.03;;;14.70;;
18576;SDS011;9418;52.694;13.294;2023-02-23T04:35:12;29.23;;;14.70;;
18576;SDS011;9418;52.694;13.294;2023-02-23T04:37:39;34.23;;;15.27;;
18576;SDS011;9418;52.694;13.294;2023-02-23T04:40:06;30.63;;;13.93;;
18576;SDS011;9418;52.694;13.294;2023-02-23T04:42:33;28.53;;;15.37;;
18576;SDS011;9418;52.694;13.294;2023-02-23T04:45:00;25.67;;;14.63;;
18576;SDS011;9418;52.694;13.294;2023-02-23T04:47:27;31.13;;;15.00;;
18576;SDS011;9418;52.694;13.294;2023-02-23T04:49:53;26.90;;;14.30;;
18576;SDS011;9418;52.694;13.294;2023-02-23T04:52:21;25.77;;;14.43;;
18576;SDS011;9418;52.694;13.294;2023-02-23T04:54:48;29.17;;;15.40;;
18576;SDS011;9418;52.694;13.294;2023-02-23T04:57:15;39.27;;;24.80;;
18576;SDS011;9418;52.694;13.294;2023-02-23T04:59:41;26.67;;;13.60;;
18576;SDS011;9418;52.694;13.294;2023-02-23T05:02:08;32.43;;;14.30;;
18576;SDS011;9418;52.694;13.294;2023-02-23T05:04:35;30.80;;;14.90;;
18576;SDS011;9418;52.694;13.294;2023-02-23T05:07:02;30.23;;;13.50;;
18576;SDS011;9418;52.694;13.294;2023-02-23T05:09:30;23.63;;;14.07;;
18576;SDS011;9418;52.694;13.294;2023-02-23T05:11:57;33.00;;;14.17;;
18576;SDS011;9418;52.694;13.294;2023-02-23T05:14:24;28.37;;;14.70;;
18576;SDS011;9418;52.694;13.294;2023-02-23T05:16:51;31.43;;;16.23;;
18576;SDS011;9418;52.694;13.294;2023-02-23T05:19:17;25.70;;;14.17;;
18576;SDS011;9418;52.694;13.294;2023-02-23T05:21:44;27.33;;;13.50;;
18576;SDS011;9418;52.694;13.294;2023-02-23T05:24:10;33.53;;;15.33;;
18576;SDS011;9418;52.694;13.294;2023-02-23T05:26:38;27.93;;;14.70;;
18576;SDS011;9418;52.694;13.294;2023-02-23T05:29:05;31.30;;;15.63;;
18576;SDS011;9418;52.694;13.294;2023-02-23T05:31:32;27.23;;;13.97;;
18576;SDS011;9418;52.694;13.294;2023-02-23T05:33:58;28.27;;;15.10;;
18576;SDS011;9418;52.694;13.294;2023-02-23T05:36:25;24.50;;;14.50;;
18576;SDS011;9418;52.694;13.294;2023-02-23T05:38:51;27.13;;;15.30;;
18576;SDS011;9418;52.694;13.294;2023-02-23T05:41:19;30.23;;;15.10;;
18576;SDS011;9418;52.694;13.294;2023-02-23T05:43:49;37.13;;;14.10;;
18576;SDS011;9418;52.694;13.294;2023-02-23T05:46:17;29.70;;;14.90;;
18576;SDS011;9418;52.694;13.294;2023-02-23T05:48:47;31.10;;;15.87;;
18576;SDS011;9418;52.694;13.294;2023-02-23T05:51:15;26.13;;;15.50;;
18576;SDS011;9418;52.694;13.294;2023-02-23T05:53:43;24.50;;;15.93;;
18576;SDS011;9418;52.694;13.294;2023-02-23T05:56:11;29.70;;;17.33;;
18576;SDS011;9418;52.694;13.294;2023-02-23T05:58:42;33.33;;;17.60;;
18576;SDS011;9418;52.694;13.294;2023-02-23T06:01:10;36.17;;;17.40;;
18576;SDS011;9418;52.694;13.294;2023-02-23T06:03:36;32.77;;;16.83;;
18576;SDS011;9418;52.694;13.294;2023-02-23T06:06:03;32.73;;;17.60;;
18576;SDS011;9418;52.694;13.294;2023-02-23T06:08:30;34.77;;;17.07;;
18576;SDS011;9418;52.694;13.294;2023-02-23T06:10:57;30.97;;;17.70;;
18576;SDS011;9418;52.694;13.294;2023-02-23T06:13:23;28.53;;;16.20;;
18576;SDS011;9418;52.694;13.294;2023-02-23T06:18:23;30.70;;;16.70;;
18576;SDS011;9418;52.694;13.294;2023-02-23T06:20:49;32.40;;;17.00;;
18576;SDS011;9418;52.694;13.294;2023-02-23T06:23:16;31.07;;;16.37;;
18576;SDS011;9418;52.694;13.294;2023-02-23T06:25:43;32.20;;;17.30;;
18576;SDS011;9418;52.694;13.294;2023-02-23T06:28:11;28.90;;;17.50;;
18576;SDS011;9418;52.694;13.294;2023-02-23T06:30:39;30.43;;;16.73;;
18576;SDS011;9418;52.694;13.294;2023-02-23T06:33:06;32.33;;;17.73;;
18576;SDS011;9418;52.694;13.294;2023-02-23T06:35:34;37.93;;;18.37;;
18576;SDS011;9418;52.694;13.294;2023-02-23T06:38:01;32.17;;;17.77;;
18576;SDS011;9418;52.694;13.294;2023-02-23T06:40:28;36.87;;;16.27;;
18576;SDS011;9418;52.694;13.294;2023-02-23T06:42:55;32.00;;;16.60;;
18576;SDS011;9418;52.694;13.294;2023-02-23T06:45:21;32.40;;;17.13;;
18576;SDS011;9418;52.694;13.294;2023-02-23T06:47:48;23.13;;;15.87;;
18576;SDS011;9418;52.694;13.294;2023-02-23T06:50:15;25.70;;;16.37;;
18576;SDS011;9418;52.694;13.294;2023-02-23T06:52:43;28.40;;;17.10;;
18576;SDS011;9418;52.694;13.294;2023-02-23T06:55:10;30.63;;;17.80;;
18576;SDS011;9418;52.694;13.294;2023-02-23T06:57:37;29.27;;;17.10;;
18576;SDS011;9418;52.694;13.294;2023-02-23T07:00:04;28.73;;;17.73;;
18576;SDS011;9418;52.694;13.294;2023-02-23T07:02:31;27.57;;;16.60;;
18576;SDS011;9418;52.694;13.294;2023-02-23T07:04:59;35.60;;;17.60;;
18576;SDS011;9418;52.694;13.294;2023-02-23T07:07:25;27.77;;;16.67;;
18576;SDS011;9418;52.694;13.294;2023-02-23T07:09:53;26.07;;;16.00;;
18576;SDS011;9418;52.694;13.294;2023-02-23T07:12:20;27.23;;;16.70;;
18576;SDS011;9418;52.694;13.294;2023-02-23T07:14:46;29.30;;;17.10;;
18576;SDS011;9418;52.694;13.294;2023-02-23T07:17:13;33.30;;;17.57;;
18576;SDS011;9418;52.694;13.294;2023-02-23T07:19:41;36.20;;;17.47;;
18576;SDS011;9418;52.694;13.294;2023-02-23T07:22:08;33.33;;;17.50;;
18576;SDS011;9418;52.694;13.294;2023-02-23T07:24:35;33.93;;;17.33;;
18576;SDS011;9418;52.694;13.294;2023-02-23T07:27:04;29.63;;;16.43;;
18576;SDS011;9418;52.694;13.294;2023-02-23T07:29:30;27.20;;;16.70;;
18576;SDS011;9418;52.694;13.294;2023-02-23T07:31:57;34.87;;;17.27;;
18576;SDS011;9418;52.694;13.294;2023-02-23T07:34:23;33.50;;;15.60;;
18576;SDS011;9418;52.694;13.294;2023-02-23T07:36:50;32.73;;;17.30;;
18576;SDS011;9418;52.694;13.294;2023-02-23T07:39:17;31.17;;;16.93;;
18576;SDS011;9418;52.694;13.294;2023-02-23T07:41:44;31.80;;;17.20;;
18576;SDS011;9418;52.694;13.294;2023-02-23T07:44:12;31.40;;;16.60;;
18576;SDS011;9418;52.694;13.294;2023-02-23T07:46:38;29.47;;;16.83;;
18576;SDS011;9418;52.694;13.294;2023-02-23T07:49:05;28.73;;;16.07;;
18576;SDS011;9418;52.694;13.294;2023-02-23T07:51:33;40.07;;;18.17;;
18576;SDS011;9418;52.694;13.294;2023-02-23T07:54:01;29.77;;;16.70;;
18576;SDS011;9418;52.694;13.294;2023-02-23T07:56:29;32.93;;;17.90;;
18576;SDS011;9418;52.694;13.294;2023-02-23T07:58:55;30.90;;;16.50;;
18576;SDS011;9418;52.694;13.294;2023-02-23T08:01:23;36.97;;;17.50;;
18576;SDS011;9418;52.694;13.294;2023-02-23T08:03:50;23.20;;;15.23;;
18576;SDS011;9418;52.694;13.294;2023-02-23T08:06:17;30.60;;;17.80;;
18576;SDS011;9418;52.694;13.294;2023-02-23T08:08:44;32.13;;;17.10;;
18576;SDS011;9418;52.694;13.294;2023-02-23T08:11:11;32.10;;;16.77;;
18576;SDS011;9418;52.694;13.294;2023-02-23T08:13:37;32.77;;;16.70;;
18576;SDS011;9418;52.694;13.294;2023-02-23T08:16:04;30.40;;;17.40;;
18576;SDS011;9418;52.694;13.294;2023-02-23T08:18:33;31.73;;;16.40;;
18576;SDS011;9418;52.694;13.294;2023-02-23T08:21:00;27.77;;;16.60;;
18576;SDS011;9418;52.694;13.294;2023-02-23T08:23:28;28.60;;;16.10;;
18576;SDS011;9418;52.694;13.294;2023-02-23T08:25:54;33.70;;;16.27;;
18576;SDS011;9418;52.694;13.294;2023-02-23T08:28:22;36.30;;;18.53;;
18576;SDS011;9418;52.694;13.294;2023-02-23T08:30:49;27.03;;;15.10;;
18576;SDS011;9418;52.694;13.294;2023-02-23T08:33:15;38.33;;;17.40;;
18576;SDS011;9418;52.694;13.294;2023-02-23T08:35:43;36.07;;;17.40;;
18576;SDS011;9418;52.694;13.294;2023-02-23T08:38:10;35.30;;;17.13;;
18576;SDS011;9418;52.694;13.294;2023-02-23T08:40:37;26.50;;;16.37;;
18576;SDS011;9418;52.694;13.294;2023-02-23T08:43:04;43.33;;;18.37;;
18576;SDS011;9418;52.694;13.294;2023-02-23T08:45:30;33.00;;;16.20;;
18576;SDS011;9418;52.694;13.294;2023-02-23T08:47:57;33.17;;;17.50;;
18576;SDS011;9418;52.694;13.294;2023-02-23T08:50:23;34.73;;;16.67;;
18576;SDS011;9418;52.694;13.294;2023-02-23T08:52:51;30.00;;;15.83;;
18576;SDS011;9418;52.694;13.294;2023-02-23T08:55:19;33.67;;;16.63;;
18576;SDS011;9418;52.694;13.294;2023-02-23T08:57:47;33.70;;;18.13;;
18576;SDS011;9418;52.694;13.294;2023-02-23T09:00:14;32.67;;;17.53;;
18576;SDS011;9418;52.694;13.294;2023-02-23T09:02:42;34.43;;;17.00;;
18576;SDS011;9418;52.694;13.294;2023-02-23T09:05:11;31.57;;;16.90;;
18576;SDS011;9418;52.694;13.294;2023-02-23T09:07:38;34.90;;;18.50;;
18576;SDS011;9418;52.694;13.294;2023-02-23T09:10:09;27.07;;;17.57;;
18576;SDS011;9418;52.694;13.294;2023-02-23T09:12:37;37.70;;;17.70;;
18576;SDS011;9418;52.694;13.294;2023-02-23T09:15:04;34.47;;;18.87;;
18576;SDS011;9418;52.694;13.294;2023-02-23T09:17:31;33.17;;;17.10;;
18576;SDS011;9418;52.694;13.294;2023-02-23T09:19:58;35.00;;;18.67;;
18576;SDS011;9418;52.694;13.294;2023-02-23T09:22:25;24.20;;;15.97;;
18576;SDS011;9418;52.694;13.294;2023-02-23T09:24:51;31.80;;;17.77;;
18576;SDS011;9418;52.694;13.294;2023-02-23T09:27:19;35.10;;;18.80;;
18576;SDS011;9418;52.694;13.294;2023-02-23T09:29:46;30.43;;;17.70;;
18576;SDS011;9418;52.694;13.294;2023-02-23T09:32:12;27.47;;;16.40;;
18576;SDS011;9418;52.694;13.294;2023-02-23T09:34:39;36.90;;;17.67;;
18576;SDS011;9418;52.694;13.294;2023-02-23T09:37:06;35.13;;;18.93;;
18576;SDS011;9418;52.694;13.294;2023-02-23T09:39:32;27.63;;;17.67;;
18576;SDS011;9418;52.694;13.294;2023-02-23T09:42:02;30.27;;;17.87;;
18576;SDS011;9418;52.694;13.294;2023-02-23T09:44:38;37.30;;;20.20;;
18576;SDS011;9418;52.694;13.294;2023-02-23T09:47:16;30.47;;;18.50;;
18576;SDS011;9418;52.694;13.294;2023-02-23T09:49:53;47.53;;;19.60;;
18576;SDS011;9418;52.694;13.294;2023-02-23T09:52:23;28.43;;;17.43;;
18576;SDS011;9418;52.694;13.294;2023-02-23T09:54:52;39.53;;;18.57;;
18576;SDS011;9418;52.694;13.294;2023-02-23T09:57:20;31.57;;;18.37;;
18576;SDS011;9418;52.694;13.294;2023-02-23T09:59:52;34.10;;;18.07;;
18576;SDS011;9418;52.694;13.294;2023-02-23T10:02:21;36.87;;;18.57;;
18576;SDS011;9418;52.694;13.294;2023-02-23T10:04:55;34.43;;;18.10;;
18576;SDS011;9418;52.694;13.294;2023-02-23T10:07:25;32.03;;;18.93;;
18576;SDS011;9418;52.694;13.294;2023-02-23T10:10:02;31.87;;;18.27;;
18576;SDS011;9418;52.694;13.294;2023-02-23T10:12:40;32.97;;;18.60;;
18576;SDS011;9418;52.694;13.294;2023-02-23T10:15:17;31.90;;;18.60;;
18576;SDS011;9418;52.694;13.294;2023-02-23T10:17:54;33.90;;;17.90;;
18576;SDS011;9418;52.694;13.294;2023-02-23T10:20:29;35.40;;;20.20;;
18576;SDS011;9418;52.694;13.294;2023-02-23T10:23:07;28.17;;;18.70;;
18576;SDS011;9418;52.694;13.294;2023-02-23T10:25:39;31.47;;;18.90;;
18576;SDS011;9418;52.694;13.294;2023-02-23T10:28:10;26.57;;;17.80;;
18576;SDS011;9418;52.694;13.294;2023-02-23T10:30:41;35.83;;;19.20;;
18576;SDS011;9418;52.694;13.294;2023-02-23T10:33:12;26.63;;;17.80;;
18576;SDS011;9418;52.694;13.294;2023-02-23T10:35:40;35.83;;;20.00;;
18576;SDS011;9418;52.694;13.294;2023-02-23T10:38:08;32.03;;;18.50;;
18576;SDS011;9418;52.694;13.294;2023-02-23T10:40:40;35.70;;;18.30;;
18576;SDS011;9418;52.694;13.294;2023-02-23T10:43:08;33.00;;;18.10;;
18576;SDS011;9418;52.694;13.294;2023-02-23T10:45:38;31.17;;;19.00;;
18576;SDS011;9418;52.694;13.294;2023-02-23T10:48:12;35.57;;;18.53;;
18576;SDS011;9418;52.694;13.294;2023-02-23T10:50:42;28.67;;;18.30;;
18576;SDS011;9418;52.694;13.294;2023-02-23T10:53:10;34.10;;;19.07;;
18576;SDS011;9418;52.694;13.294;2023-02-23T10:55:41;30.53;;;17.97;;
18576;SDS011;9418;52.694;13.294;2023-02-23T10:58:10;33.47;;;20.20;;
18576;SDS011;9418;52.694;13.294;2023-02-23T11:00:42;31.83;;;20.23;;
18576;SDS011;9418;52.694;13.294;2023-02-23T11:03:17;31.87;;;18.50;;
18576;SDS011;9418;52.694;13.294;2023-02-23T11:05:48;32.90;;;19.60;;
18576;SDS011;9418;52.694;13.294;2023-02-23T11:08:22;29.30;;;18.40;;
18576;SDS011;9418;52.694;13.294;2023-02-23T11:10:57;31.63;;;18.53;;
18576;SDS011;9418;52.694;13.294;2023-02-23T11:13:26;41.17;;;18.70;;
18576;SDS011;9418;52.694;13.294;2023-02-23T11:16:00;33.90;;;18.53;;
18576;SDS011;9418;52.694;13.294;2023-02-23T11:18:29;34.23;;;18.33;;
18576;SDS011;9418;52.694;13.294;2023-02-23T11:20:56;40.10;;;19.90;;
18576;SDS011;9418;52.694;13.294;2023-02-23T11:23:24;27.97;;;18.03;;
18576;SDS011;9418;52.694;13.294;2023-02-23T11:25:54;29.83;;;18.53;;
18576;SDS011;9418;52.694;13.294;2023-02-23T11:28:25;33.77;;;18.73;;
18576;SDS011;9418;52.694;13.294;2023-02-23T11:30:55;29.10;;;19.33;;
18576;SDS011;9418;52.694;13.294;2023-02-23T11:33:24;24.83;;;16.77;;
18576;SDS011;9418;52.694;13.294;2023-02-23T11:35:59;32.90;;;18.30;;
18576;SDS011;9418;52.694;13.294;2023-02-23T11:38:37;34.73;;;20.40;;
18576;SDS011;9418;52.694;13.294;2023-02-23T11:41:04;29.90;;;19.00;;
18576;SDS011;9418;52.694;13.294;2023-02-23T11:43:43;38.23;;;18.87;;
18576;SDS011;9418;52.694;13.294;2023-02-23T11:46:13;28.60;;;18.73;;
18576;SDS011;9418;52.694;13.294;2023-02-23T11:48:43;24.70;;;17.83;;
18576;SDS011;9418;52.694;13.294;2023-02-23T11:51:21;37.47;;;19.00;;
18576;SDS011;9418;52.694;13.294;2023-02-23T11:53:50;37.47;;;19.17;;
18576;SDS011;9418;52.694;13.294;2023-02-23T11:56:18;29.10;;;18.90;;
18576;SDS011;9418;52.694;13.294;2023-02-23T11:58:47;33.37;;;19.60;;
18576;SDS011;9418;52.694;13.294;2023-02-23T12:01:15;28.87;;;18.00;;
18576;SDS011;9418;52.694;13.294;2023-02-23T12:03:49;30.80;;;19.00;;
18576;SDS011;9418;52.694;13.294;2023-02-23T12:06:25;34.43;;;19.13;;
18576;SDS011;9418;52.694;13.294;2023-02-23T12:08:55;32.33;;;18.40;;
18576;SDS011;9418;52.694;13.294;2023-02-23T12:11:28;33.67;;;16.73;;
18576;SDS011;9418;52.694;13.294;2023-02-23T12:14:00;28.90;;;17.77;;
18576;SDS011;9418;52.694;13.294;2023-02-23T12:16:31;33.60;;;19.47;;
18576;SDS011;9418;52.694;13.294;2023-02-23T12:19:03;35.70;;;21.27;;
18576;SDS011;9418;52.694;13.294;2023-02-23T12:21:38;35.33;;;19.30;;
18576;SDS011;9418;52.694;13.294;2023-02-23T12:24:11;32.50;;;20.70;;
18576;SDS011;9418;52.694;13.294;2023-02-23T12:26:45;29.20;;;19.30;;
18576;SDS011;9418;52.694;13.294;2023-02-23T12:29:18;34.33;;;20.23;;
18576;SDS011;9418;52.694;13.294;2023-02-23T12:31:55;29.23;;;20.20;;
18576;SDS011;9418;52.694;13.294;2023-02-23T12:34:29;32.57;;;18.97;;
18576;SDS011;9418;52.694;13.294;2023-02-23T12:37:00;28.40;;;19.30;;
18576;SDS011;9418;52.694;13.294;2023-02-23T12:39:35;36.47;;;19.10;;
18576;SDS011;9418;52.694;13.294;2023-02-23T12:42:08;30.80;;;19.43;;
18576;SDS011;9418;52.694;13.294;2023-02-23T12:44:40;30.13;;;18.77;;
18576;SDS011;9418;52.694;13.294;2023-02-23T12:47:15;29.60;;;19.07;;
18576;SDS011;9418;52.694;13.294;2023-02-23T12:49:50;30.50;;;19.27;;
18576;SDS011;9418;52.694;13.294;2023-02-23T12:52:23;30.57;;;20.30;;
18576;SDS011;9418;52.694;13.294;2023-02-23T12:54:54;30.47;;;16.90;;
18576;SDS011;9418;52.694;13.294;2023-02-23T12:57:22;29.30;;;19.30;;
18576;SDS011;9418;52.694;13.294;2023-02-23T13:03:03;32.03;;;17.80;;
18576;SDS011;9418;52.694;13.294;2023-02-23T13:05:52;24.80;;;18.73;;
18576;SDS011;9418;52.694;13.294;2023-02-23T13:08:27;30.10;;;20.23;;
18576;SDS011;9418;52.694;13.294;2023-02-23T13:11:00;34.47;;;21.80;;
18576;SDS011;9418;52.694;13.294;2023-02-23T13:13:38;27.43;;;19.30;;
18576;SDS011;9418;52.694;13.294;2023-02-23T13:16:14;28.67;;;19.57;;
18576;SDS011;9418;52.694;13.294;2023-02-23T13:18:48;30.90;;;19.03;;
18576;SDS011;9418;52.694;13.294;2023-02-23T13:21:21;30.60;;;19.63;;
18576;SDS011;9418;52.694;13.294;2023-02-23T13:23:54;35.20;;;21.10;;
18576;SDS011;9418;52.694;13.294;2023-02-23T13:26:27;30.53;;;21.10;;
18576;SDS011;9418;52.694;13.294;2023-02-23T13:29:04;32.27;;;20.23;;
18576;SDS011;9418;52.694;13.294;2023-02-23T13:31:36;29.73;;;20.13;;
18576;SDS011;9418;52.694;13.294;2023-02-23T13:34:07;30.83;;;20.40;;
18576;SDS011;9418;52.694;13.294;2023-02-23T13:36:40;35.87;;;21.70;;
18576;SDS011;9418;52.694;13.294;2023-02-23T13:39:19;33.90;;;20.70;;
18576;SDS011;9418;52.694;13.294;2023-02-23T13:42:09;36.03;;;19.87;;
18576;SDS011;9418;52.694;13.294;2023-02-23T13:44:46;31.97;;;19.97;;
18576;SDS011;9418;52.694;13.294;2023-02-23T13:47:19;41.97;;;20.70;;
18576;SDS011;9418;52.694;13.294;2023-02-23T13:49:58;36.13;;;22.87;;
18576;SDS011;9418;52.694;13.294;2023-02-23T13:52:36;41.37;;;22.60;;
18576;SDS011;9418;52.694;13.294;2023-02-23T13:55:17;29.83;;;21.20;;
18576;SDS011;9418;52.694;13.294;2023-02-23T13:58:16;35.53;;;21.93;;
18576;SDS011;9418;52.694;13.294;2023-02-23T14:00:50;33.20;;;21.30;;
18576;SDS011;9418;52.694;13.294;2023-02-23T14:03:21;31.37;;;20.40;;
18576;SDS011;9418;52.694;13.294;2023-02-23T14:05:51;30.50;;;21.63;;
18576;SDS011;9418;52.694;13.294;2023-02-23T14:08:26;33.83;;;22.13;;
18576;SDS011;9418;52.694;13.294;2023-02-23T14:10:58;33.70;;;23.50;;
18576;SDS011;9418;52.694;13.294;2023-02-23T14:13:26;42.20;;;22.57;;
18576;SDS011;9418;52.694;13.294;2023-02-23T14:18:50;34.03;;;22.37;;
18576;SDS011;9418;52.694;13.294;2023-02-23T14:21:23;36.27;;;23.17;;
18576;SDS011;9418;52.694;13.294;2023-02-23T14:24:01;38.43;;;22.97;;
18576;SDS011;9418;52.694;13.294;2023-02-23T14:26:42;37.30;;;23.77;;
18576;SDS011;9418;52.694;13.294;2023-02-23T14:29:24;32.00;;;22.97;;
18576;SDS011;9418;52.694;13.294;2023-02-23T14:31:53;46.47;;;26.20;;
18576;SDS011;9418;52.694;13.294;2023-02-23T14:34:22;42.83;;;25.90;;
18576;SDS011;9418;52.694;13.294;2023-02-23T14:36:48;40.93;;;24.20;;
18576;SDS011;9418;52.694;13.294;2023-02-23T14:39:21;34.20;;;24.67;;
18576;SDS011;9418;52.694;13.294;2023-02-23T14:41:53;63.67;;;29.90;;
18576;SDS011;9418;52.694;13.294;2023-02-23T14:44:23;49.63;;;30.07;;
18576;SDS011;9418;52.694;13.294;2023-02-23T14:46:53;49.00;;;31.30;;
18576;SDS011;9418;52.694;13.294;2023-02-23T14:49:22;53.20;;;31.87;;
18576;SDS011;9418;52.694;13.294;2023-02-23T14:51:52;50.30;;;31.00;;
18576;SDS011;9418;52.694;13.294;2023-02-23T14:54:23;44.83;;;29.33;;
18576;SDS011;9418;52.694;13.294;2023-02-23T14:56:54;43.50;;;29.23;;
18576;SDS011;9418;52.694;13.294;2023-02-23T14:59:23;47.90;;;31.40;;